Time,TemperatureF,DewpointF,PressureIn,WindDirection,WindDirectionDegrees,WindSpeedMPH,WindSpeedGustMPH,Humidity,HourlyPrecipIn,Conditions,Clouds,dailyrainin,SolarRadiationWatts/m^2,SoftwareType,DateUTC
2013-02-17 00:01:00,46.0,42.0,-100.00,North,353,12.0,23.0,85,0.00,,,0.56,0.000000,,2013-02-17 10:01:00,
2013-02-17 00:11:00,46.0,42.0,-100.00,North,353,12.0,23.0,85,0.00,,,0.56,0.000000,,2013-02-17 10:11:00,
2013-02-17 00:21:00,46.0,42.0,-100.00,North,353,12.0,23.0,85,0.00,,,0.56,0.000000,,2013-02-17 10:21:00,
2013-02-17 00:31:00,46.0,42.0,-100.00,North,353,12.0,23.0,85,0.00,,,0.56,0.000000,,2013-02-17 10:31:00,
2013-02-17 00:52:00,45.0,43.0,-100.00,North,10,12.0,19.0,91,0.00,,,-99.99,0.000000,,2013-02-17 10:52:00,
2013-02-17 01:01:00,45.0,43.0,-100.00,North,10,12.0,19.0,91,0.00,,,-99.99,0.000000,,2013-02-17 11:01:00,
2013-02-17 01:11:00,45.0,43.0,-100.00,North,10,12.0,19.0,91,0.00,,,-99.99,0.000000,,2013-02-17 11:11:00,
2013-02-17 01:21:00,45.0,43.0,-100.00,North,10,12.0,19.0,91,0.00,,,-99.99,0.000000,,2013-02-17 11:21:00,
2013-02-17 01:32:00,45.0,43.0,-100.00,North,10,12.0,19.0,91,0.00,,,-99.99,0.000000,,2013-02-17 11:32:00,
2013-02-17 01:52:00,47.0,41.0,-100.00,North,4,13.0,22.0,79,0.01,,,0.49,0.000000,,2013-02-17 11:52:00,
2013-02-17 02:03:00,47.0,41.0,-100.00,North,4,13.0,22.0,79,0.01,,,0.49,0.000000,,2013-02-17 12:03:00,
2013-02-17 02:11:00,47.0,41.0,-100.00,North,4,13.0,22.0,79,0.01,,,0.49,0.000000,,2013-02-17 12:11:00,
2013-02-17 02:22:00,47.0,41.0,-100.00,North,4,13.0,22.0,79,0.01,,,0.49,0.000000,,2013-02-17 12:22:00,
2013-02-17 02:31:00,47.0,41.0,-100.00,North,4,13.0,22.0,79,0.01,,,0.49,0.000000,,2013-02-17 12:31:00,
2013-02-17 03:02:00,46.0,40.0,-100.00,North,9,13.0,24.0,79,0.00,,,0.44,0.000000,,2013-02-17 13:02:00,
2013-02-17 03:11:00,46.0,40.0,-100.00,North,9,13.0,24.0,79,0.00,,,0.44,0.000000,,2013-02-17 13:11:00,
2013-02-17 03:21:00,46.0,40.0,-100.00,North,9,13.0,24.0,79,0.00,,,0.44,0.000000,,2013-02-17 13:21:00,
2013-02-17 03:32:00,46.0,40.0,-100.00,North,9,13.0,24.0,79,0.00,,,0.44,0.000000,,2013-02-17 13:32:00,
2013-02-17 04:01:00,45.0,36.0,-100.00,North,4,9.0,21.0,70,0.00,,,0.43,0.000000,,2013-02-17 14:01:00,
2013-02-17 04:11:00,45.0,36.0,-100.00,North,4,9.0,21.0,70,0.00,,,0.43,0.000000,,2013-02-17 14:11:00,
2013-02-17 04:21:00,45.0,36.0,-100.00,North,4,9.0,21.0,70,0.00,,,0.43,0.000000,,2013-02-17 14:21:00,
2013-02-17 04:32:00,45.0,36.0,-100.00,North,4,9.0,21.0,70,0.00,,,0.43,0.000000,,2013-02-17 14:32:00,
2013-02-17 05:01:00,44.0,39.0,-100.00,NNW,328,8.0,23.0,81,0.00,,,0.39,0.000000,,2013-02-17 15:01:00,
2013-02-17 05:11:00,44.0,39.0,-100.00,NNW,328,8.0,23.0,81,0.00,,,0.39,0.000000,,2013-02-17 15:11:00,
2013-02-17 05:21:00,44.0,39.0,-100.00,NNW,328,8.0,23.0,81,0.00,,,0.39,0.000000,,2013-02-17 15:21:00,
2013-02-17 05:31:00,44.0,39.0,-100.00,NNW,328,8.0,23.0,81,0.00,,,0.39,0.000000,,2013-02-17 15:31:00,
2013-02-17 06:01:00,44.0,38.0,-100.00,North,349,9.0,25.0,79,0.00,,,0.27,0.000000,,2013-02-17 16:01:00,
2013-02-17 06:11:00,44.0,38.0,-100.00,North,349,9.0,25.0,79,0.00,,,0.27,0.000000,,2013-02-17 16:11:00,
2013-02-17 06:21:00,44.0,38.0,-100.00,North,349,9.0,25.0,79,0.00,,,0.27,0.000000,,2013-02-17 16:21:00,
2013-02-17 06:31:00,44.0,38.0,-100.00,North,349,9.0,25.0,79,0.00,,,0.27,0.000000,,2013-02-17 16:31:00,
2013-02-17 06:52:00,45.0,39.0,-100.00,North,356,12.0,21.0,80,0.00,,,0.24,0.000000,,2013-02-17 16:52:00,
2013-02-17 07:02:00,45.0,39.0,-100.00,North,356,12.0,21.0,80,0.00,,,0.24,0.000000,,2013-02-17 17:02:00,
2013-02-17 07:11:00,45.0,39.0,-100.00,North,356,12.0,21.0,80,0.00,,,0.24,0.000000,,2013-02-17 17:11:00,
2013-02-17 07:21:00,45.0,39.0,-100.00,North,356,12.0,21.0,80,0.00,,,0.24,0.000000,,2013-02-17 17:21:00,
2013-02-17 07:31:00,45.0,39.0,-100.00,North,356,12.0,21.0,80,0.00,,,0.24,0.000000,,2013-02-17 17:31:00,
2013-02-17 08:01:00,49.0,41.0,-100.00,NNW,331,10.0,21.0,73,0.00,,,0.20,56.000000,,2013-02-17 18:01:00,
2013-02-17 08:11:00,49.0,41.0,-100.00,NNW,331,10.0,21.0,73,0.00,,,0.20,56.000000,,2013-02-17 18:11:00,
2013-02-17 08:21:00,49.0,41.0,-100.00,NNW,331,10.0,21.0,73,0.00,,,0.20,56.000000,,2013-02-17 18:21:00,
2013-02-17 08:33:00,49.0,41.0,-100.00,NNW,331,10.0,21.0,73,0.00,,,0.20,56.000000,,2013-02-17 18:33:00,
2013-02-17 09:01:00,56.0,43.0,-100.00,NNW,332,10.0,22.0,62,0.00,,,0.12,211.000000,,2013-02-17 19:01:00,
2013-02-17 09:11:00,56.0,43.0,-100.00,NNW,332,10.0,22.0,62,0.00,,,0.12,211.000000,,2013-02-17 19:11:00,
2013-02-17 09:21:00,56.0,43.0,-100.00,NNW,332,10.0,22.0,62,0.00,,,0.12,211.000000,,2013-02-17 19:21:00,
2013-02-17 09:31:00,56.0,43.0,-100.00,NNW,332,10.0,22.0,62,0.00,,,0.12,211.000000,,2013-02-17 19:31:00,
2013-02-17 10:01:00,58.0,46.0,-100.00,NNW,340,7.0,20.0,65,0.00,,,0.09,303.000000,,2013-02-17 20:01:00,
2013-02-17 10:11:00,58.0,46.0,-100.00,NNW,340,7.0,20.0,65,0.00,,,0.09,303.000000,,2013-02-17 20:11:00,
2013-02-17 10:21:00,58.0,46.0,-100.00,NNW,340,7.0,20.0,65,0.00,,,0.09,303.000000,,2013-02-17 20:21:00,
2013-02-17 10:31:00,58.0,46.0,-100.00,NNW,340,7.0,20.0,65,0.00,,,0.09,303.000000,,2013-02-17 20:31:00,
2013-02-17 11:01:00,59.0,51.0,-100.00,North,11,8.0,19.0,75,0.00,,,0.07,498.000000,,2013-02-17 21:01:00,
2013-02-17 11:11:00,59.0,51.0,-100.00,North,11,8.0,19.0,75,0.00,,,0.07,498.000000,,2013-02-17 21:11:00,
2013-02-17 11:21:00,59.0,51.0,-100.00,North,11,8.0,19.0,75,0.00,,,0.07,498.000000,,2013-02-17 21:21:00,
2013-02-17 11:31:00,59.0,51.0,-100.00,North,11,8.0,19.0,75,0.00,,,0.07,498.000000,,2013-02-17 21:31:00,
2013-02-17 11:53:00,62.0,51.0,-100.00,NNE,13,10.0,19.0,66,0.00,,,0.02,838.000000,,2013-02-17 21:53:00,
2013-02-17 12:01:00,62.0,51.0,-100.00,NNE,13,10.0,19.0,66,0.00,,,0.02,838.000000,,2013-02-17 22:01:00,
2013-02-17 12:11:00,62.0,51.0,-100.00,NNE,13,10.0,19.0,66,0.00,,,0.02,838.000000,,2013-02-17 22:11:00,
2013-02-17 12:21:00,62.0,51.0,-100.00,NNE,13,10.0,19.0,66,0.00,,,0.02,838.000000,,2013-02-17 22:21:00,
2013-02-17 12:32:00,62.0,51.0,-100.00,NNE,13,10.0,19.0,66,0.00,,,0.02,838.000000,,2013-02-17 22:32:00,
2013-02-17 13:02:00,54.0,50.0,-100.00,NNE,21,11.0,19.0,87,0.02,,,0.04,648.000000,,2013-02-17 23:02:00,
2013-02-17 13:11:00,54.0,50.0,-100.00,NNE,21,11.0,19.0,87,0.02,,,0.04,648.000000,,2013-02-17 23:11:00,
2013-02-17 13:21:00,54.0,50.0,-100.00,NNE,21,11.0,19.0,87,0.02,,,0.04,648.000000,,2013-02-17 23:21:00,
2013-02-17 13:31:00,54.0,50.0,-100.00,NNE,21,11.0,19.0,87,0.02,,,0.04,648.000000,,2013-02-17 23:31:00,
2013-02-17 14:01:00,58.0,53.0,-100.00,NNE,23,12.0,23.0,82,0.02,,,0.05,777.000000,,2013-02-18 00:01:00,
2013-02-17 14:11:00,58.0,53.0,-100.00,NNE,23,12.0,23.0,82,0.02,,,0.05,777.000000,,2013-02-18 00:11:00,
2013-02-17 14:22:00,58.0,53.0,-100.00,NNE,23,12.0,23.0,82,0.02,,,0.05,777.000000,,2013-02-18 00:22:00,
2013-02-17 14:31:00,58.0,53.0,-100.00,NNE,23,12.0,23.0,82,0.02,,,0.05,777.000000,,2013-02-18 00:31:00,
2013-02-17 15:01:00,57.0,53.0,-100.00,NNE,12,12.0,24.0,86,0.01,,,0.06,639.000000,,2013-02-18 01:01:00,
2013-02-17 15:11:00,57.0,53.0,-100.00,NNE,12,12.0,24.0,86,0.01,,,0.06,639.000000,,2013-02-18 01:11:00,
2013-02-17 15:21:00,57.0,53.0,-100.00,NNE,12,12.0,24.0,86,0.01,,,0.06,639.000000,,2013-02-18 01:21:00,
2013-02-17 15:31:00,57.0,53.0,-100.00,NNE,12,12.0,24.0,86,0.01,,,0.06,639.000000,,2013-02-18 01:31:00,
2013-02-17 16:01:00,53.0,50.0,-100.00,NNE,14,14.0,24.0,89,0.02,,,0.08,517.000000,,2013-02-18 02:01:00,
2013-02-17 16:11:00,53.0,50.0,-100.00,NNE,14,14.0,24.0,89,0.02,,,0.08,517.000000,,2013-02-18 02:11:00,
2013-02-17 16:21:00,53.0,50.0,-100.00,NNE,14,14.0,24.0,89,0.02,,,0.08,517.000000,,2013-02-18 02:21:00,
2013-02-17 16:31:00,53.0,50.0,-100.00,NNE,14,14.0,24.0,89,0.02,,,0.08,517.000000,,2013-02-18 02:31:00,
2013-02-17 17:01:00,53.0,50.0,-100.00,North,11,12.0,27.0,91,0.03,,,0.11,364.000000,,2013-02-18 03:01:00,
2013-02-17 17:11:00,53.0,50.0,-100.00,North,11,12.0,27.0,91,0.03,,,0.11,364.000000,,2013-02-18 03:11:00,
2013-02-17 17:21:00,53.0,50.0,-100.00,North,11,12.0,27.0,91,0.03,,,0.11,364.000000,,2013-02-18 03:21:00,
2013-02-17 17:31:00,53.0,50.0,-100.00,North,11,12.0,27.0,91,0.03,,,0.11,364.000000,,2013-02-18 03:31:00,
2013-02-17 18:01:00,51.0,49.0,-100.00,North,6,10.0,22.0,92,0.02,,,0.13,235.000000,,2013-02-18 04:01:00,
2013-02-17 18:11:00,51.0,49.0,-100.00,North,6,10.0,22.0,92,0.02,,,0.13,235.000000,,2013-02-18 04:11:00,
2013-02-17 18:21:00,51.0,49.0,-100.00,North,6,10.0,22.0,92,0.02,,,0.13,235.000000,,2013-02-18 04:21:00,
2013-02-17 18:32:00,51.0,49.0,-100.00,North,6,10.0,22.0,92,0.02,,,0.13,235.000000,,2013-02-18 04:32:00,
2013-02-17 19:01:00,48.0,46.0,-100.00,North,353,8.0,20.0,93,0.02,,,0.15,31.000000,,2013-02-18 05:01:00,
2013-02-17 19:11:00,48.0,46.0,-100.00,North,353,8.0,20.0,93,0.02,,,0.15,31.000000,,2013-02-18 05:11:00,
2013-02-17 19:21:00,48.0,46.0,-100.00,North,353,8.0,20.0,93,0.02,,,0.15,31.000000,,2013-02-18 05:21:00,
2013-02-17 19:31:00,48.0,46.0,-100.00,North,353,8.0,20.0,93,0.02,,,0.15,31.000000,,2013-02-18 05:31:00,
2013-02-17 19:52:00,47.0,45.0,-100.00,NNW,345,10.0,20.0,93,0.02,,,0.17,0.000000,,2013-02-18 05:52:00,
2013-02-17 20:02:00,47.0,45.0,-100.00,NNW,345,10.0,20.0,93,0.02,,,0.17,0.000000,,2013-02-18 06:02:00,
2013-02-17 20:11:00,47.0,45.0,-100.00,NNW,345,10.0,20.0,93,0.02,,,0.17,0.000000,,2013-02-18 06:11:00,
2013-02-17 20:21:00,47.0,45.0,-100.00,NNW,345,10.0,20.0,93,0.02,,,0.17,0.000000,,2013-02-18 06:21:00,
2013-02-17 20:31:00,47.0,45.0,-100.00,NNW,345,10.0,20.0,93,0.02,,,0.17,0.000000,,2013-02-18 06:31:00,
2013-02-17 21:01:00,48.0,46.0,-100.00,SSE,160,13.0,19.0,92,0.01,,,0.18,0.000000,,2013-02-18 07:01:00,
2013-02-17 21:11:00,48.0,46.0,-100.00,SSE,160,13.0,19.0,92,0.01,,,0.18,0.000000,,2013-02-18 07:11:00,
2013-02-17 21:21:00,48.0,46.0,-100.00,SSE,160,13.0,19.0,92,0.01,,,0.18,0.000000,,2013-02-18 07:21:00,
2013-02-17 21:31:00,48.0,46.0,-100.00,SSE,160,13.0,19.0,92,0.01,,,0.18,0.000000,,2013-02-18 07:31:00,
2013-02-17 22:01:00,47.0,44.0,-100.00,North,4,7.0,25.0,90,0.01,,,0.19,0.000000,,2013-02-18 08:01:00,
2013-02-17 22:11:00,47.0,44.0,-100.00,North,4,7.0,25.0,90,0.01,,,0.19,0.000000,,2013-02-18 08:11:00,
2013-02-17 22:21:00,47.0,44.0,-100.00,North,4,7.0,25.0,90,0.01,,,0.19,0.000000,,2013-02-18 08:21:00,
2013-02-17 22:32:00,47.0,44.0,-100.00,North,4,7.0,25.0,90,0.01,,,0.19,0.000000,,2013-02-18 08:32:00,
2013-02-17 23:02:00,47.0,45.0,-100.00,NNE,12,12.0,19.0,94,0.07,,,0.26,0.000000,,2013-02-18 09:02:00,
2013-02-17 23:11:00,47.0,45.0,-100.00,NNE,12,12.0,19.0,94,0.07,,,0.26,0.000000,,2013-02-18 09:11:00,
2013-02-17 23:22:00,47.0,45.0,-100.00,NNE,12,12.0,19.0,94,0.07,,,0.26,0.000000,,2013-02-18 09:22:00,
2013-02-17 23:31:00,47.0,45.0,-100.00,NNE,12,12.0,19.0,94,0.07,,,0.26,0.000000,,2013-02-18 09:31:00,